createdAt,value
2022-09-23T00:00:39.074Z,99.99
2022-09-23T00:01:39.104Z,99.99
2022-09-23T00:02:39.122Z,99.99
2022-09-23T00:03:39.045Z,99.99
2022-09-23T00:04:39.034Z,99.99
2022-09-23T00:05:39.024Z,99.99
2022-09-23T00:06:39.014Z,99.99
2022-09-23T00:07:39.007Z,99.99
2022-09-23T00:08:38.994Z,99.99
2022-09-23T00:09:38.991Z,99.99
2022-09-23T00:10:38.989Z,99.99
2022-09-23T00:11:38.971Z,99.99
2022-09-23T00:12:38.956Z,99.99
2022-09-23T00:13:38.943Z,99.99
2022-09-23T00:14:38.936Z,99.99
2022-09-23T00:15:38.928Z,99.99
2022-09-23T00:16:38.949Z,99.99
2022-09-23T00:17:38.906Z,99.99
2022-09-23T00:18:38.894Z,99.99
2022-09-23T00:19:38.913Z,99.99
2022-09-23T00:20:38.876Z,99.99
2022-09-23T00:21:38.865Z,99.99
2022-09-23T00:22:38.855Z,99.99
2022-09-23T00:23:38.847Z,99.99
2022-09-23T00:24:38.835Z,99.99
2022-09-23T00:25:38.824Z,99.99
2022-09-23T00:26:38.813Z,99.99
2022-09-23T00:27:38.807Z,99.99
2022-09-23T00:28:38.795Z,99.99
2022-09-23T00:29:38.784Z,99.99
2022-09-23T00:30:38.835Z,99.99
2022-09-23T00:31:38.764Z,99.99
2022-09-23T00:32:38.754Z,99.99
2022-09-23T00:33:38.750Z,99.99
2022-09-23T00:34:38.735Z,99.99
2022-09-23T00:35:38.730Z,99.99
2022-09-23T00:36:38.715Z,99.99
2022-09-23T00:37:38.703Z,99.99
2022-09-23T00:38:38.702Z,99.99
2022-09-23T00:39:38.686Z,99.99
2022-09-23T00:40:38.690Z,99.99
2022-09-23T00:41:38.663Z,99.99
2022-09-23T00:42:38.652Z,99.99
2022-09-23T00:43:38.644Z,99.99
2022-09-23T00:44:38.634Z,99.99
2022-09-23T00:45:38.692Z,99.99
2022-09-23T00:46:38.613Z,99.99
2022-09-23T00:47:38.605Z,99.99
2022-09-23T00:48:38.592Z,99.99
2022-09-23T00:49:38.582Z,99.99
2022-09-23T00:50:38.573Z,99.99
2022-09-23T00:51:38.587Z,99.99
2022-09-23T00:52:38.566Z,99.99
2022-09-23T00:53:38.540Z,99.99
2022-09-23T00:54:38.531Z,99.99
2022-09-23T00:55:38.522Z,99.99
2022-09-23T00:56:38.510Z,99.99
2022-09-23T00:57:38.501Z,99.99
2022-09-23T00:58:38.491Z,99.99
2022-09-23T00:59:38.483Z,99.99
2022-09-23T01:00:38.470Z,99.99
2022-09-23T01:01:38.511Z,99.99
2022-09-23T01:02:38.515Z,99.99
2022-09-23T01:03:38.439Z,99.99
2022-09-23T01:04:38.430Z,99.99
2022-09-23T01:05:38.434Z,99.99
2022-09-23T01:06:38.409Z,99.99
2022-09-23T01:07:38.397Z,99.99
2022-09-23T01:08:38.390Z,99.99
2022-09-23T01:09:38.377Z,99.99
2022-09-23T01:10:38.367Z,99.99
2022-09-23T01:11:38.363Z,99.99
2022-09-23T01:12:38.345Z,99.99
2022-09-23T01:13:38.338Z,99.99
2022-09-23T01:14:38.326Z,99.99
2022-09-23T01:15:38.315Z,99.99
2022-09-23T01:16:38.345Z,99.99
2022-09-23T01:17:38.298Z,99.99
2022-09-23T01:18:38.284Z,99.99
2022-09-23T01:19:38.274Z,99.99
2022-09-23T01:20:38.264Z,99.99
2022-09-23T01:21:38.251Z,99.99
2022-09-23T01:22:38.242Z,99.99
2022-09-23T01:23:38.231Z,99.99
2022-09-23T01:24:38.223Z,99.99
2022-09-23T01:25:38.209Z,99.99
2022-09-23T01:26:38.203Z,99.99
2022-09-23T01:27:38.190Z,99.99
2022-09-23T01:28:38.181Z,99.99
2022-09-23T01:29:38.173Z,99.99
2022-09-23T01:30:38.238Z,99.99
2022-09-23T01:31:38.148Z,99.99
2022-09-23T01:32:38.138Z,99.99
2022-09-23T01:33:38.127Z,99.99
2022-09-23T01:34:38.116Z,99.99
2022-09-23T01:35:38.109Z,99.99
2022-09-23T01:36:38.097Z,99.99
2022-09-23T01:37:38.086Z,99.99
2022-09-23T01:38:38.075Z,99.99
2022-09-23T01:39:38.064Z,99.99
2022-09-23T01:40:38.103Z,99.99
2022-09-23T01:41:38.039Z,99.99
2022-09-23T01:42:38.031Z,99.99
2022-09-23T01:43:45.177Z,99.99
2022-09-23T01:45:30.938Z,99.99
2022-09-23T01:46:30.911Z,99.99
2022-09-23T01:48:34.949Z,99.99
2022-09-23T01:49:34.878Z,99.99
2022-09-23T01:51:49.941Z,99.99
2022-09-23T01:52:49.914Z,99.99
2022-09-23T01:54:42.817Z,99.99
2022-09-23T01:55:42.822Z,99.99
2022-09-23T01:57:35.720Z,99.99
2022-09-23T01:58:35.695Z,99.99
2022-09-23T02:00:39.677Z,99.99
2022-09-23T02:01:39.694Z,99.99
2022-09-23T02:03:54.689Z,99.99
2022-09-23T02:04:54.676Z,99.99
2022-09-23T02:06:59.134Z,99.99
2022-09-23T02:07:59.110Z,99.99
2022-09-23T02:08:59.103Z,99.99
2022-09-23T02:09:59.090Z,99.99
2022-09-23T02:10:59.084Z,99.99
2022-09-23T02:11:59.066Z,99.99
2022-09-23T02:12:59.059Z,99.99
2022-09-23T02:13:59.049Z,99.99
2022-09-23T02:14:59.040Z,99.99
2022-09-23T02:15:59.028Z,99.99
2022-09-23T02:16:59.080Z,99.99
2022-09-23T02:17:59.003Z,99.99
2022-09-23T02:18:59.053Z,99.99
2022-09-23T02:19:58.993Z,99.99
2022-09-23T02:20:58.976Z,99.99
2022-09-23T02:21:58.966Z,99.99
2022-09-23T02:22:58.964Z,99.99
2022-09-23T02:23:58.942Z,99.99
2022-09-23T02:24:58.933Z,99.99
2022-09-23T02:25:58.925Z,99.99
2022-09-23T02:26:58.915Z,99.99
2022-09-23T02:27:58.902Z,99.99
2022-09-23T02:28:58.901Z,99.99
2022-09-23T02:29:58.885Z,99.99
2022-09-23T02:30:58.873Z,99.99
2022-09-23T02:31:58.900Z,99.99
2022-09-23T02:32:58.854Z,99.99
2022-09-23T02:33:58.839Z,99.99
2022-09-23T02:34:58.829Z,99.99
2022-09-23T02:35:58.820Z,99.99
2022-09-23T02:36:58.807Z,99.99
2022-09-23T02:37:58.797Z,99.99
2022-09-23T02:38:58.795Z,99.99
2022-09-23T02:39:58.778Z,99.99
2022-09-23T02:40:58.763Z,99.99
2022-09-23T02:41:58.755Z,99.99
2022-09-23T02:42:58.778Z,99.99
2022-09-23T02:43:58.733Z,99.99
2022-09-23T02:44:58.723Z,99.99
2022-09-23T02:45:58.783Z,99.99
2022-09-23T02:46:58.697Z,99.99
2022-09-23T02:47:58.692Z,99.99
2022-09-23T02:48:58.688Z,99.99
2022-09-23T02:49:58.673Z,99.99
2022-09-23T02:50:58.658Z,99.99
2022-09-23T02:51:58.653Z,99.99
2022-09-23T02:52:58.636Z,99.99
2022-09-23T02:53:58.667Z,99.99
2022-09-23T02:54:58.623Z,99.99
2022-09-23T02:55:58.606Z,99.99
2022-09-23T02:56:58.596Z,99.99
2022-09-23T02:57:58.579Z,99.99
2022-09-23T02:58:58.571Z,99.99
2022-09-23T02:59:58.560Z,99.99
2022-09-23T03:00:58.595Z,99.99
2022-09-23T03:01:58.596Z,99.99
2022-09-23T03:02:58.529Z,99.99
2022-09-23T03:03:58.519Z,99.99
2022-09-23T03:04:58.506Z,99.99
2022-09-23T03:05:58.496Z,99.99
2022-09-23T03:06:58.487Z,99.99
2022-09-23T03:07:58.477Z,99.99
2022-09-23T03:08:58.482Z,99.99
2022-09-23T03:09:58.449Z,99.99
2022-09-23T03:10:58.446Z,99.99
2022-09-23T03:11:58.461Z,99.99
2022-09-23T03:12:58.433Z,99.99
2022-09-23T03:13:58.412Z,99.99
2022-09-23T03:14:58.413Z,99.99
2022-09-23T03:15:58.387Z,99.99
2022-09-23T03:16:58.374Z,99.99
2022-09-23T03:17:58.376Z,99.99
2022-09-23T03:18:58.363Z,99.99
2022-09-23T03:19:58.347Z,99.99
2022-09-23T03:20:58.333Z,99.99
2022-09-23T03:21:58.327Z,99.99
2022-09-23T03:22:58.311Z,99.99
2022-09-23T03:23:58.304Z,99.99
2022-09-23T03:24:58.295Z,99.99
2022-09-23T03:25:58.283Z,99.99
2022-09-23T03:26:58.274Z,99.99
2022-09-23T03:27:58.260Z,99.99
2022-09-23T03:28:58.253Z,99.99
2022-09-23T03:29:58.238Z,99.99
2022-09-23T03:30:58.236Z,99.99
2022-09-23T03:31:58.260Z,99.99
2022-09-23T03:32:58.210Z,99.99
2022-09-23T03:33:58.196Z,99.99
2022-09-23T03:34:58.190Z,99.99
2022-09-23T03:35:58.173Z,99.99
2022-09-23T03:36:58.162Z,99.99
2022-09-23T03:37:58.157Z,99.99
2022-09-23T03:38:58.139Z,99.99
2022-09-23T03:39:58.131Z,99.99
2022-09-23T03:40:58.119Z,99.99
2022-09-23T03:41:58.110Z,99.99
2022-09-23T03:42:58.099Z,99.99
2022-09-23T03:43:58.087Z,99.99
2022-09-23T03:44:58.075Z,99.99
2022-09-23T03:45:58.125Z,99.99
2022-09-23T03:46:58.055Z,99.99
2022-09-23T03:47:58.046Z,99.99
2022-09-23T03:48:58.033Z,99.99
2022-09-23T03:49:58.022Z,99.99
2022-09-23T03:50:58.011Z,99.99
2022-09-23T03:51:58.000Z,99.99
2022-09-23T03:52:57.991Z,99.99
2022-09-23T03:53:57.980Z,99.99
2022-09-23T03:54:57.975Z,99.99
2022-09-23T03:55:57.954Z,99.99
2022-09-23T03:56:57.946Z,99.99
2022-09-23T03:57:57.942Z,99.99
2022-09-23T03:58:57.924Z,99.99
2022-09-23T03:59:57.917Z,99.99
2022-09-23T04:00:57.951Z,99.99
2022-09-23T04:01:57.984Z,99.99
2022-09-23T04:02:57.877Z,99.99
2022-09-23T04:03:57.874Z,99.99
2022-09-23T04:04:57.859Z,99.99
2022-09-23T04:05:57.848Z,99.99
2022-09-23T04:06:57.840Z,99.99
2022-09-23T04:07:57.826Z,99.99
2022-09-23T04:08:57.815Z,99.99
2022-09-23T04:09:57.804Z,99.99
2022-09-23T04:10:57.797Z,99.99
2022-09-23T04:11:57.785Z,99.99
2022-09-23T04:12:57.766Z,99.99
2022-09-23T04:13:57.762Z,99.99
2022-09-23T04:14:57.753Z,99.99
2022-09-23T04:15:57.774Z,99.99
2022-09-23T04:16:57.729Z,99.99
2022-09-23T04:17:57.721Z,99.99
2022-09-23T04:18:57.703Z,99.99
2022-09-23T04:19:57.706Z,99.99
2022-09-23T04:20:57.694Z,99.99
2022-09-23T04:21:57.671Z,99.99
2022-09-23T04:22:57.664Z,99.99
2022-09-23T04:23:57.660Z,99.99
2022-09-23T04:24:57.641Z,99.99
2022-09-23T04:25:57.626Z,99.99
2022-09-23T04:26:57.618Z,99.99
2022-09-23T04:27:57.614Z,99.99
2022-09-23T04:28:57.603Z,99.99
2022-09-23T04:29:57.581Z,99.99
2022-09-23T04:30:57.577Z,99.99
2022-09-23T04:31:57.582Z,99.99
2022-09-23T04:32:57.554Z,99.99
2022-09-23T04:33:57.543Z,99.99
2022-09-23T04:34:57.533Z,99.99
2022-09-23T04:35:57.520Z,99.99
2022-09-23T04:36:57.510Z,99.99
2022-09-23T04:37:57.504Z,99.99
2022-09-23T04:38:57.487Z,99.99
2022-09-23T04:39:57.477Z,99.99
2022-09-23T04:40:57.472Z,99.99
2022-09-23T04:41:57.452Z,99.99
2022-09-23T04:42:57.440Z,99.99
2022-09-23T04:43:57.435Z,99.99
2022-09-23T04:44:57.423Z,99.99
2022-09-23T04:45:57.412Z,99.99
2022-09-23T04:46:57.431Z,99.99
2022-09-23T04:47:57.388Z,99.99
2022-09-23T04:48:57.379Z,99.99
2022-09-23T04:49:59.829Z,99.99
2022-09-23T04:50:57.363Z,99.99
2022-09-23T04:51:57.344Z,99.99
2022-09-23T04:52:57.327Z,99.99
2022-09-23T04:53:57.322Z,99.99
2022-09-23T04:54:57.319Z,99.99
2022-09-23T04:55:57.299Z,99.99
2022-09-23T04:56:57.289Z,99.99
2022-09-23T04:57:57.283Z,99.99
2022-09-23T04:58:57.264Z,99.99
2022-09-23T04:59:57.253Z,99.99
2022-09-23T05:01:00.520Z,99.99
2022-09-23T05:01:57.295Z,99.99
2022-09-23T05:02:57.224Z,99.99
2022-09-23T05:03:57.219Z,99.99
2022-09-23T05:04:57.202Z,99.99
2022-09-23T05:05:57.191Z,99.99
2022-09-23T05:07:02.218Z,99.99
2022-09-23T05:07:57.172Z,99.99
2022-09-23T05:08:57.157Z,99.99
2022-09-23T05:09:57.147Z,99.99
2022-09-23T05:10:57.136Z,99.99
2022-09-23T05:11:57.130Z,99.99
2022-09-23T05:12:57.463Z,99.99
2022-09-23T05:13:57.105Z,99.99
2022-09-23T05:14:57.097Z,99.99
2022-09-23T05:15:57.137Z,99.99
2022-09-23T05:16:57.074Z,99.99
2022-09-23T05:17:57.069Z,99.99
2022-09-23T05:18:57.051Z,99.99
2022-09-23T05:19:57.037Z,99.99
2022-09-23T05:20:57.025Z,99.99
2022-09-23T05:21:57.015Z,99.99
2022-09-23T05:22:57.005Z,99.99
2022-09-23T05:23:56.991Z,99.99
2022-09-23T05:24:56.989Z,99.99
2022-09-23T05:25:56.970Z,99.99
2022-09-23T05:26:56.953Z,99.99
2022-09-23T05:27:56.949Z,99.99
2022-09-23T05:28:56.939Z,99.99
2022-09-23T05:29:56.926Z,99.99
2022-09-23T05:30:56.953Z,99.99
2022-09-23T05:31:56.939Z,99.99
2022-09-23T05:32:56.888Z,99.99
2022-09-23T05:33:56.882Z,99.99
2022-09-23T05:34:56.875Z,99.99
2022-09-23T05:35:56.860Z,99.99
2022-09-23T05:36:56.849Z,99.99
2022-09-23T05:37:56.840Z,99.99
2022-09-23T05:38:56.828Z,99.99
2022-09-23T05:39:56.811Z,99.99
2022-09-23T05:40:56.803Z,99.99
2022-09-23T05:41:56.793Z,99.99
2022-09-23T05:42:56.783Z,99.99
2022-09-23T05:43:56.770Z,99.99
2022-09-23T05:44:56.761Z,99.99
2022-09-23T05:45:56.750Z,99.99
2022-09-23T05:46:56.893Z,99.24
2022-09-23T05:47:56.734Z,96.37
2022-09-23T05:49:01.127Z,94.95
2022-09-23T05:49:59.898Z,92.74
2022-09-23T05:50:56.694Z,90.85
2022-09-23T05:51:56.713Z,88.31
2022-09-23T05:52:56.679Z,86.90
2022-09-23T05:53:56.668Z,84.80
2022-09-23T05:54:56.659Z,81.86
2022-09-23T05:55:56.725Z,80.29
2022-09-23T05:56:57.683Z,80.19
2022-09-23T05:57:56.631Z,78.79
2022-09-23T05:58:56.621Z,78.83
2022-09-23T05:59:56.610Z,78.25
2022-09-23T06:00:56.600Z,78.90
2022-09-23T06:01:56.801Z,79.86
2022-09-23T06:02:56.646Z,80.10
2022-09-23T06:03:56.571Z,80.45
2022-09-23T06:04:56.562Z,81.30
2022-09-23T06:05:56.558Z,81.24
2022-09-23T06:06:57.735Z,82.31
2022-09-23T06:07:56.537Z,83.13
2022-09-23T06:08:56.531Z,84.40
2022-09-23T06:09:56.518Z,83.99
2022-09-23T06:10:56.506Z,84.88
2022-09-23T06:11:56.499Z,85.25
2022-09-23T06:12:56.484Z,84.66
2022-09-23T06:13:56.481Z,83.55
2022-09-23T06:14:56.465Z,81.59
2022-09-23T06:15:56.524Z,78.34
2022-09-23T06:16:56.467Z,77.25
2022-09-23T06:17:56.443Z,74.38
2022-09-23T06:18:56.435Z,72.96
2022-09-23T06:19:56.426Z,71.73
2022-09-23T06:20:56.410Z,71.80
2022-09-23T06:21:56.407Z,74.39
2022-09-23T06:22:56.421Z,74.73
2022-09-23T06:23:57.278Z,77.36
2022-09-23T06:24:56.383Z,78.76
2022-09-23T06:25:56.374Z,79.58
2022-09-23T06:26:56.372Z,80.30
2022-09-23T06:27:56.362Z,80.46
2022-09-23T06:28:56.349Z,80.12
2022-09-23T06:29:56.346Z,78.65
2022-09-23T06:30:56.386Z,79.43
2022-09-23T06:31:56.419Z,78.23
2022-09-23T06:32:56.320Z,75.75
2022-09-23T06:34:08.509Z,74.59
2022-09-23T06:34:56.297Z,73.19
2022-09-23T06:35:59.764Z,74.35
2022-09-23T06:36:56.290Z,70.55
2022-09-23T06:37:56.276Z,68.58
2022-09-23T06:38:56.268Z,68.52
2022-09-23T06:39:56.260Z,66.99
2022-09-23T06:40:56.252Z,66.99
2022-09-23T06:41:56.243Z,67.13
2022-09-23T06:42:56.239Z,67.39
2022-09-23T06:43:56.234Z,70.31
2022-09-23T06:44:56.224Z,71.77
2022-09-23T06:45:56.218Z,72.92
2022-09-23T06:46:56.271Z,73.36
2022-09-23T06:47:56.212Z,74.32
2022-09-23T06:48:56.191Z,74.76
2022-09-23T06:49:56.191Z,77.39
2022-09-23T06:50:56.184Z,78.75
2022-09-23T06:51:56.172Z,80.22
2022-09-23T06:52:56.304Z,80.43
2022-09-23T06:53:56.175Z,81.08
2022-09-23T06:54:56.156Z,81.63
2022-09-23T06:55:56.142Z,82.04
2022-09-23T06:56:56.137Z,83.27
2022-09-23T06:57:56.136Z,83.37
2022-09-23T06:58:56.117Z,83.88
2022-09-23T06:59:56.116Z,84.19
2022-09-23T07:00:56.107Z,84.09
2022-09-23T07:01:56.164Z,84.19
2022-09-23T07:02:56.136Z,84.60
2022-09-23T07:03:56.082Z,84.29
2022-09-23T07:04:56.087Z,84.91
2022-09-23T07:05:56.068Z,84.50
2022-09-23T07:06:56.064Z,84.09
2022-09-23T07:07:56.052Z,84.46
2022-09-23T07:08:56.065Z,84.15
2022-09-23T07:09:56.032Z,83.23
2022-09-23T07:10:56.028Z,84.05
2022-09-23T07:11:56.022Z,82.92
2022-09-23T07:12:56.007Z,83.29
2022-09-23T07:13:56.010Z,83.64
2022-09-23T07:14:55.995Z,83.60
2022-09-23T07:15:56.048Z,83.50
2022-09-23T07:16:55.975Z,83.09
2022-09-23T07:17:55.973Z,83.05
2022-09-23T07:18:55.972Z,83.19
2022-09-23T07:19:55.957Z,82.84
2022-09-23T07:20:55.954Z,83.05
2022-09-23T07:21:55.941Z,82.75
2022-09-23T07:22:55.932Z,82.23
2022-09-23T07:23:55.924Z,82.70
2022-09-23T07:24:55.930Z,82.29
2022-09-23T07:25:55.926Z,82.29
2022-09-23T07:26:55.903Z,81.88
2022-09-23T07:27:55.941Z,82.70
2022-09-23T07:28:55.888Z,81.74
2022-09-23T07:29:55.879Z,80.83
2022-09-23T07:31:00.292Z,81.40
2022-09-23T07:32:05.984Z,81.71
2022-09-23T07:32:55.923Z,80.69
2022-09-23T07:33:55.849Z,80.28
2022-09-23T07:34:55.842Z,80.28
2022-09-23T07:35:55.838Z,79.97
2022-09-23T07:36:55.824Z,79.57
2022-09-23T07:37:55.815Z,78.61
2022-09-23T07:38:55.813Z,80.04
2022-09-23T07:39:55.807Z,80.14
2022-09-23T07:40:55.795Z,78.81
2022-09-23T07:41:55.789Z,78.91
2022-09-23T07:42:55.797Z,78.67
2022-09-23T07:43:55.767Z,77.75
2022-09-23T07:45:02.944Z,76.80
2022-09-23T07:46:48.930Z,75.07
2022-09-23T07:47:48.856Z,75.68
2022-09-23T07:49:41.978Z,76.25
2022-09-23T07:50:41.952Z,74.55
2022-09-23T07:52:35.058Z,74.83
2022-09-23T07:53:35.044Z,75.34
2022-09-23T07:55:27.963Z,75.34
2022-09-23T07:56:27.945Z,75.60
2022-09-23T07:58:21.045Z,74.99
2022-09-23T07:59:21.031Z,75.92
2022-09-23T08:01:25.053Z,74.49
2022-09-23T08:02:25.024Z,74.35
2022-09-23T08:04:18.136Z,74.55
2022-09-23T08:05:18.130Z,74.35
2022-09-23T08:07:11.234Z,74.04
2022-09-23T08:08:11.223Z,74.72
2022-09-23T08:10:04.335Z,73.54
2022-09-23T08:11:04.313Z,73.60
2022-09-23T08:12:57.418Z,73.30
2022-09-23T08:13:57.399Z,72.99
2022-09-23T08:16:01.531Z,72.55
2022-09-23T08:17:01.427Z,73.67
2022-09-23T08:20:05.407Z,71.73
2022-09-23T08:21:58.515Z,72.52
2022-09-23T08:22:58.498Z,72.52
2022-09-23T08:24:52.836Z,72.41
2022-09-23T08:25:51.398Z,72.17
2022-09-23T08:27:44.338Z,71.30
2022-09-23T08:28:44.322Z,71.50
2022-09-23T08:30:48.397Z,71.36
2022-09-23T08:31:48.346Z,71.87
2022-09-23T08:33:52.832Z,72.01
2022-09-23T08:34:52.813Z,70.68
2022-09-23T08:35:52.805Z,71.60
2022-09-23T08:36:52.801Z,72.31
2022-09-23T08:37:52.791Z,70.68
2022-09-23T08:38:52.790Z,71.67
2022-09-23T08:39:52.793Z,71.57
2022-09-23T08:40:52.771Z,71.06
2022-09-23T08:41:57.494Z,70.45
2022-09-23T08:42:52.759Z,71.06
2022-09-23T08:43:52.754Z,71.57
2022-09-23T08:44:52.746Z,71.47
2022-09-23T08:45:52.766Z,71.67
2022-09-23T08:46:52.732Z,70.04
2022-09-23T08:47:52.726Z,70.65
2022-09-23T08:48:52.722Z,69.74
2022-09-23T08:49:52.715Z,69.33
2022-09-23T08:50:52.711Z,69.33
2022-09-23T08:51:52.703Z,69.74
2022-09-23T08:52:52.701Z,69.53
2022-09-23T08:53:52.687Z,70.75
2022-09-23T08:54:55.404Z,71.53
2022-09-23T08:55:52.677Z,69.40
2022-09-23T08:56:52.674Z,69.91
2022-09-23T08:58:14.133Z,69.60
2022-09-23T08:58:52.658Z,68.59
2022-09-23T08:59:52.651Z,69.47
2022-09-23T09:00:52.652Z,70.01
2022-09-23T09:01:52.674Z,69.78
2022-09-23T09:02:52.675Z,69.17
2022-09-23T09:03:52.625Z,70.18
2022-09-23T09:04:52.621Z,69.57
2022-09-23T09:05:54.474Z,69.06
2022-09-23T09:06:54.378Z,68.66
2022-09-23T09:07:52.601Z,68.93
2022-09-23T09:08:52.596Z,67.94
2022-09-23T09:09:52.591Z,68.35
2022-09-23T09:10:52.587Z,68.25
2022-09-23T09:11:52.578Z,68.12
2022-09-23T09:12:52.575Z,68.12
2022-09-23T09:13:52.564Z,66.90
2022-09-23T09:14:52.560Z,67.64
2022-09-23T09:15:55.128Z,67.50
2022-09-23T09:17:00.900Z,67.20
2022-09-23T09:17:52.543Z,67.41
2022-09-23T09:18:52.534Z,67.30
2022-09-23T09:19:52.526Z,66.39
2022-09-23T09:20:52.523Z,67.10
2022-09-23T09:21:52.522Z,65.68
2022-09-23T09:22:52.510Z,67.07
2022-09-23T09:23:52.510Z,65.27
2022-09-23T09:24:52.497Z,66.05
2022-09-23T09:25:52.495Z,66.36
2022-09-23T09:26:52.484Z,65.75
2022-09-23T09:27:52.487Z,65.34
2022-09-23T09:28:52.476Z,65.14
2022-09-23T09:29:52.468Z,65.95
2022-09-23T09:30:52.652Z,66.05
2022-09-23T09:31:52.460Z,64.13
2022-09-23T09:32:52.450Z,65.14
2022-09-23T09:33:52.447Z,66.26
2022-09-23T09:34:52.439Z,66.05
2022-09-23T09:35:52.436Z,64.91
2022-09-23T09:36:52.427Z,66.13
2022-09-23T09:37:53.608Z,65.82
2022-09-23T09:38:52.418Z,66.02
2022-09-23T09:39:52.412Z,65.18
2022-09-23T09:40:52.480Z,65.18
2022-09-23T09:41:52.398Z,64.78
2022-09-23T09:42:52.394Z,64.91
2022-09-23T09:43:52.397Z,64.98
2022-09-23T09:44:52.382Z,64.98
2022-09-23T09:45:56.753Z,64.78
2022-09-23T09:46:52.425Z,63.56
2022-09-23T09:47:52.366Z,62.65
2022-09-23T09:48:52.358Z,63.86
2022-09-23T09:49:52.352Z,62.62
2022-09-23T09:50:52.351Z,62.21
2022-09-23T09:51:52.341Z,62.52
2022-09-23T09:52:52.284Z,60.89
2022-09-23T09:53:52.277Z,61.30
2022-09-23T09:54:52.270Z,63.02
2022-09-23T09:55:52.266Z,64.14
2022-09-23T09:56:52.260Z,60.46
2022-09-23T09:57:52.276Z,59.58
2022-09-23T09:58:52.247Z,58.97
2022-09-23T09:59:52.241Z,59.85
2022-09-23T10:00:52.238Z,59.65
2022-09-23T10:01:52.245Z,60.06
2022-09-23T10:02:52.221Z,60.36
2022-09-23T10:03:56.995Z,57.93
2022-09-23T10:04:52.241Z,58.94
2022-09-23T10:05:52.244Z,59.83
2022-09-23T10:06:52.206Z,59.42
2022-09-23T10:07:52.196Z,59.85
2022-09-23T10:08:52.193Z,57.60
2022-09-23T10:09:52.189Z,56.01
2022-09-23T10:10:52.182Z,54.28
2022-09-23T10:11:52.187Z,56.51
2022-09-23T10:12:52.171Z,56.92
2022-09-23T10:13:52.165Z,58.11
2022-09-23T10:14:52.158Z,58.34
2022-09-23T10:15:52.153Z,59.52
2022-09-23T10:16:52.176Z,57.22
2022-09-23T10:17:52.145Z,58.13
2022-09-23T10:18:52.138Z,58.71
2022-09-23T10:19:52.130Z,58.94
2022-09-23T10:20:52.128Z,59.01
2022-09-23T10:21:52.122Z,59.32
2022-09-23T10:22:52.117Z,59.42
2022-09-23T10:23:52.112Z,59.01
2022-09-23T10:24:52.116Z,56.28
2022-09-23T10:25:52.102Z,55.88
2022-09-23T10:26:52.100Z,57.20
2022-09-23T10:27:52.093Z,58.00
2022-09-23T10:28:52.088Z,58.92
2022-09-23T10:29:52.176Z,58.11
2022-09-23T10:30:52.091Z,59.42
2022-09-23T10:31:52.081Z,60.50
2022-09-23T10:32:52.089Z,60.00
2022-09-23T10:33:52.085Z,58.89
2022-09-23T10:34:52.058Z,58.07
2022-09-23T10:35:52.054Z,57.67
2022-09-23T10:36:52.051Z,57.07
2022-09-23T10:37:52.049Z,57.85
2022-09-23T10:38:52.041Z,56.73
2022-09-23T10:39:52.039Z,56.15
2022-09-23T10:40:52.190Z,56.66
2022-09-23T10:41:52.030Z,57.98
2022-09-23T10:42:52.020Z,58.48
2022-09-23T10:43:52.037Z,59.36
2022-09-23T10:44:52.015Z,58.05
2022-09-23T10:45:52.033Z,58.45
2022-09-23T10:46:52.008Z,56.71
2022-09-23T10:47:52.005Z,55.60
2022-09-23T10:48:52.000Z,55.69
2022-09-23T10:49:51.997Z,56.30
2022-09-23T10:50:51.989Z,55.90
2022-09-23T10:51:51.988Z,53.47
2022-09-23T10:52:51.979Z,55.29
2022-09-23T10:53:51.981Z,55.77
2022-09-23T10:54:51.973Z,56.07
2022-09-23T10:55:51.970Z,55.07
2022-09-23T10:56:51.965Z,53.45
2022-09-23T10:57:51.968Z,53.75
2022-09-23T10:58:51.959Z,53.72
2022-09-23T10:59:51.952Z,51.81
2022-09-23T11:00:51.953Z,52.64
2022-09-23T11:01:52.010Z,54.16
2022-09-23T11:02:51.943Z,55.04
2022-09-23T11:03:51.939Z,54.74
2022-09-23T11:04:51.974Z,54.94
2022-09-23T11:05:51.929Z,51.71
2022-09-23T11:06:51.927Z,50.82
2022-09-23T11:07:51.924Z,51.91
2022-09-23T11:08:51.918Z,53.55
2022-09-23T11:09:51.915Z,55.47
2022-09-23T11:10:52.027Z,54.36
2022-09-23T11:11:51.913Z,55.65
2022-09-23T11:12:51.903Z,55.47
2022-09-23T11:13:54.386Z,55.24
2022-09-23T11:14:51.893Z,54.10
2022-09-23T11:15:51.892Z,54.51
2022-09-23T11:16:51.912Z,53.72
2022-09-23T11:17:51.887Z,54.00
2022-09-23T11:18:51.885Z,54.00
2022-09-23T11:19:51.878Z,54.00
2022-09-23T11:20:51.877Z,53.20
2022-09-23T11:21:51.870Z,52.19
2022-09-23T11:22:51.867Z,52.67
2022-09-23T11:23:51.863Z,51.56
2022-09-23T11:24:51.860Z,52.87
2022-09-23T11:25:51.855Z,52.56
2022-09-23T11:26:51.851Z,53.65
2022-09-23T11:27:51.848Z,51.33
2022-09-23T11:28:51.842Z,52.24
2022-09-23T11:29:51.843Z,51.53
2022-09-23T11:30:51.889Z,52.94
2022-09-23T11:31:54.109Z,51.93
2022-09-23T11:32:51.906Z,50.73
2022-09-23T11:33:51.831Z,51.45
2022-09-23T11:34:54.834Z,51.03
2022-09-23T11:35:51.819Z,52.36
2022-09-23T11:36:51.817Z,53.05
2022-09-23T11:37:51.812Z,50.85
2022-09-23T11:38:51.812Z,51.64
2022-09-23T11:39:51.820Z,50.65
2022-09-23T11:40:51.968Z,51.05
2022-09-23T11:41:51.798Z,51.96
2022-09-23T11:42:51.796Z,51.66
2022-09-23T11:43:51.791Z,51.10
2022-09-23T11:44:51.786Z,49.61
2022-09-23T11:45:51.818Z,51.40
2022-09-23T11:46:51.782Z,51.93
2022-09-23T11:47:51.778Z,52.21
2022-09-23T11:48:51.773Z,51.00
2022-09-23T11:49:51.769Z,51.20
2022-09-23T11:50:51.771Z,51.68
2022-09-23T11:51:51.763Z,52.79
2022-09-23T11:52:51.761Z,49.96
2022-09-23T11:53:51.756Z,50.16
2022-09-23T11:54:51.752Z,50.57
2022-09-23T11:55:57.784Z,50.07
2022-09-23T11:56:51.746Z,51.28
2022-09-23T11:57:51.740Z,51.89
2022-09-23T11:58:56.028Z,51.86
2022-09-23T11:59:51.745Z,51.96
2022-09-23T12:00:56.185Z,50.16
2022-09-23T12:01:51.780Z,49.89
2022-09-23T12:03:02.394Z,49.58
2022-09-23T12:03:51.870Z,49.81
2022-09-23T12:04:57.480Z,51.23
2022-09-23T12:05:51.883Z,51.30
2022-09-23T12:06:51.705Z,51.91
2022-09-23T12:07:51.702Z,51.40
2022-09-23T12:08:51.714Z,51.89
2022-09-23T12:09:58.571Z,51.86
2022-09-23T12:10:51.698Z,51.56
2022-09-23T12:11:51.686Z,51.53
2022-09-23T12:12:51.683Z,52.44
2022-09-23T12:13:51.686Z,51.03
2022-09-23T12:14:51.691Z,50.93
2022-09-23T12:15:51.673Z,50.20
2022-09-23T12:16:51.684Z,48.99
2022-09-23T12:17:51.676Z,49.09
2022-09-23T12:18:51.661Z,48.28
2022-09-23T12:19:51.658Z,48.69
2022-09-23T12:20:51.654Z,48.69
2022-09-23T12:21:51.759Z,48.99
2022-09-23T12:22:51.647Z,48.69
2022-09-23T12:23:51.637Z,47.78
2022-09-23T12:24:51.638Z,48.00
2022-09-23T12:25:51.635Z,46.89
2022-09-23T12:26:51.630Z,46.19
2022-09-23T12:27:51.626Z,45.89
2022-09-23T12:28:51.622Z,46.39
2022-09-23T12:29:51.619Z,46.09
2022-09-23T12:30:51.703Z,47.40
2022-09-23T12:31:51.611Z,46.29
2022-09-23T12:32:51.609Z,46.29
2022-09-23T12:33:51.605Z,47.19
2022-09-23T12:34:51.602Z,46.39
2022-09-23T12:35:51.598Z,47.67
2022-09-23T12:36:51.594Z,45.76
2022-09-23T12:37:51.592Z,47.27
2022-09-23T12:38:51.593Z,47.88
2022-09-23T12:39:51.585Z,47.98
2022-09-23T12:40:51.633Z,47.67
2022-09-23T12:41:51.578Z,48.69
2022-09-23T12:42:51.573Z,47.38
2022-09-23T12:43:51.570Z,45.16
2022-09-23T12:44:51.565Z,46.47
2022-09-23T12:45:51.590Z,46.57
2022-09-23T12:46:51.560Z,44.55
2022-09-23T12:47:51.555Z,46.09
2022-09-23T12:48:51.551Z,46.49
2022-09-23T12:49:51.549Z,47.60
2022-09-23T12:50:51.549Z,48.30
2022-09-23T12:51:51.539Z,48.58
2022-09-23T12:52:51.536Z,45.98
2022-09-23T12:53:51.533Z,44.47
2022-09-23T12:54:51.529Z,44.57
2022-09-23T12:55:51.527Z,46.29
2022-09-23T12:56:51.524Z,46.81
2022-09-23T12:57:51.519Z,46.92
2022-09-23T12:58:51.515Z,47.12
2022-09-23T12:59:51.510Z,48.02
2022-09-23T13:00:51.527Z,46.89
2022-09-23T13:01:51.600Z,47.82
2022-09-23T13:02:51.502Z,47.22
2022-09-23T13:03:51.496Z,46.01
2022-09-23T13:04:51.493Z,45.40
2022-09-23T13:05:51.490Z,46.01
2022-09-23T13:06:51.485Z,46.81
2022-09-23T13:07:51.479Z,46.03
2022-09-23T13:08:51.476Z,45.32
2022-09-23T13:09:51.473Z,45.14
2022-09-23T13:10:51.471Z,46.66
2022-09-23T13:11:51.467Z,45.75
2022-09-23T13:12:51.462Z,45.34
2022-09-23T13:13:51.461Z,47.67
2022-09-23T13:14:51.492Z,47.77
2022-09-23T13:15:51.456Z,46.66
2022-09-23T13:16:51.491Z,46.05
2022-09-23T13:17:51.444Z,46.86